• Join FlightAware (Why Join?)
  • Login
  • US Flag 
03:12PM EDT


 

Airport Tracker/Info


-or-


 

Live Flight TrackerFlight Track Log ✈ SWA709 ✈ 22-Apr-2013 ✈ KSJC - KDEN

Flight Track Log - Related Links

Times and Time Zones

All times are in EDT time to prevent confusion due to time zone crossing. See the SWA709 flight status page for this flight to view local times or setup timezone preferences in your user account.

Time Position Orientation Groundspeed Altitude Reporting Facility
EDT Latitude Longitude Course Direction KTS MPH feet Rate Location/Type
12:40PM 37.4358 -121.9478 North 227 261 4,800  Level Oakland Center
12:41PM 37.3753 -121.8636 132° Southeast 280 322 5,500 2,040 Climbing Oakland Center
12:42PM 37.3150 -121.8019 141° Southeast 290 334 9,000 3,480 Climbing Oakland Center
12:43PM 37.2819 -121.8742 240° Southwest 273 314 12,600 2,760 Climbing Oakland Center
12:44PM 37.8476 -121.7810 63° Northeast  Level FlightAware Approximate
12:44PM 37.3472 -121.9278 327° Northwest 293 337 14,700  Level Oakland Center
12:45PM 37.4422 -121.9503 349° North 345 397 17,000 2,340 Climbing Oakland Center
12:46PM 37.5436 -121.9614 355° North 361 415 19,600 2,460 Climbing Oakland Center
12:47PM 37.6333 -121.8892 33° Northeast 397 457 22,100 2,280 Climbing Oakland Center
12:48PM 37.6944 -121.7653 58° Northeast 414 476 24,300 2,160 Climbing Oakland Center
12:49PM 37.7717 -121.6114 58° Northeast 430 495 26,600 1,980 Climbing Oakland Center
12:50PM 37.8403 -121.4747 58° Northeast 450 518 28,400 1,740 Climbing Oakland Center
12:51PM 37.9081 -121.3383 58° Northeast 459 528 30,200 1,860 Climbing Oakland Center
12:52PM 37.9758 -121.2017 58° Northeast 461 531 32,300 1,740 Climbing Oakland Center
12:53PM 38.0417 -121.0681 58° Northeast 452 520 33,800 1,380 Climbing Oakland Center
12:54PM 38.0944 -120.9206 66° East 461 531 35,200 1,320 Climbing Oakland Center
12:55PM 38.1269 -120.7644 75° East 463 533 36,600 840 Climbing Oakland Center
12:56PM 38.1533 -120.6064 78° East 462 532 37,000 180 Climbing Oakland Center
12:57PM 38.1878 -120.4161 77° East 462 532 37,000  Level Oakland Center
12:58PM 38.2156 -120.2575 77° East 462 532 37,000  Level Oakland Center
12:59PM 38.2439 -120.0975 77° East 465 535 37,000  Level Oakland Center
01:00PM 38.2722 -119.9375 77° East 463 533 37,000  Level Oakland Center
01:01PM 38.3003 -119.7772 77° East 465 535 37,000  Level Oakland Center
01:02PM 38.3278 -119.6164 78° East 465 535 37,000  Level Oakland Center
01:03PM 38.3547 -119.4492 78° East 465 535 37,000  Level Oakland Center
01:04PM 38.3819 -119.2883 78° East 465 535 37,000  Level Oakland Center
01:05PM 38.4086 -119.1269 78° East 466 536 37,000  Level Oakland Center
01:06PM 38.4403 -118.9303 78° East 472 543 37,000  Level Oakland Center
01:07PM 38.4669 -118.7672 78° East 472 543 37,000  Level Oakland Center
01:08PM 38.4939 -118.6028 78° East 474 545 37,000  Level Oakland Center
01:09PM 38.5203 -118.4378 78° East 477 549 37,000  Level Oakland Center
01:10PM 38.5458 -118.2728 79° East 477 549 37,000  Level Oakland Center
01:11PM 38.5756 -118.0850 78° East 480 552 37,000  Level Oakland Center
01:13PM 38.6019 -117.9161 79° East 482 555 37,000  Level Oakland Center
01:14PM 38.6275 -117.7475 79° East 482 555 37,000  Level Oakland Center
01:15PM 38.6536 -117.5786 79° East 482 555 37,000  Level Oakland Center
01:16PM 38.6781 -117.4086 80° East 482 555 37,000  Level Oakland Center
01:16PM 38.6978 -117.2717 80° East 485 558 37,000  Level Salt Lake Center
01:17PM 38.7236 -117.0997 79° East 488 562 37,000  Level Salt Lake Center
01:18PM 38.7286 -117.0647 80° East 489 563 37,000  Level Oakland Center
01:19PM 38.7531 -116.8947 80° East 485 558 37,000  Level Oakland Center
01:19PM 38.7722 -116.7575 80° East 487 560 37,000  Level Salt Lake Center
01:20PM 38.7972 -116.5853 79° East 489 563 37,000  Level Salt Lake Center
01:21PM 38.8214 -116.4133 80° East 489 563 37,000  Level Salt Lake Center
01:22PM 38.8264 -116.3786 80° East 489 563 37,000  Level Oakland Center
01:23PM 38.8453 -116.2403 80° East 490 564 37,000  Level Salt Lake Center
01:24PM 38.8703 -116.0661 80° East 495 570 37,000  Level Salt Lake Center
01:25PM 38.8925 -115.8911 81° East 496 571 37,000  Level Salt Lake Center
01:26PM 38.9219 -115.6797 80° East 501 577 37,000  Level Salt Lake Center
01:27PM 38.9450 -115.5036 80° East 501 577 37,000  Level Salt Lake Center
01:28PM 38.9700 -115.3253 80° East 501 577 37,000  Level Salt Lake Center
01:29PM 38.9922 -115.1478 81° East 503 579 37,000  Level Salt Lake Center
01:30PM 39.0147 -114.9708 81° East 502 578 37,000  Level Salt Lake Center
01:31PM 39.0378 -114.7925 80° East 504 580 37,000  Level Salt Lake Center
01:32PM 39.0611 -114.6125 80° East 510 587 37,000  Level Salt Lake Center
01:33PM 39.0828 -114.4331 81° East 509 586 37,000  Level Salt Lake Center
01:34PM 39.1056 -114.2531 81° East 510 587 37,000  Level Salt Lake Center
01:35PM 39.1269 -114.0719 81° East 510 587 37,000  Level Salt Lake Center
01:36PM 39.1528 -113.8558 81° East 511 588 37,000  Level Salt Lake Center
01:37PM 39.1736 -113.6750 81° East 510 587 37,000  Level Salt Lake Center
01:38PM 39.1931 -113.4936 82° East 511 588 37,000  Level Salt Lake Center
01:39PM 39.2147 -113.3111 81° East 512 589 37,000  Level Salt Lake Center
01:40PM 39.2347 -113.1303 82° East 510 587 37,000  Level Salt Lake Center
01:41PM 39.2550 -112.9486 82° East 513 590 37,000  Level Salt Lake Center
01:42PM 39.2750 -112.7658 82° East 514 592 37,000  Level Salt Lake Center
01:43PM 39.2967 -112.5661 82° East 516 594 37,000  Level Salt Lake Center
01:44PM 39.3247 -112.3867 79° East 514 592 37,000  Level Salt Lake Center
01:45PM 39.3581 -112.2089 76° East 512 589 37,000  Level Salt Lake Center
01:46PM 39.3911 -112.0311 76° East 512 589 37,000  Level Salt Lake Center
01:47PM 39.4322 -111.8147 76° East 518 596 37,000  Level Salt Lake Center
01:48PM 39.4644 -111.6339 77° East 518 596 37,000  Level Salt Lake Center
01:49PM 39.4964 -111.4542 77° East 517 595 37,000  Level Salt Lake Center
01:50PM 39.5306 -111.2642 77° East 522 601 37,000  Level Salt Lake Center
01:51PM 39.5603 -111.0886 78° East 521 600 37,000  Level Salt Lake Center
01:52PM 39.5961 -110.8853 77° East 519 597 37,000  Level Salt Lake Center
01:53PM 39.6275 -110.7117 77° East 518 596 37,000  Level Salt Lake Center
01:54PM 39.6614 -110.5075 78° East 518 596 37,000  Level Salt Lake Center
01:55PM 39.6906 -110.3308 78° East 521 600 37,000  Level Salt Lake Center
01:56PM 39.7253 -110.1239 78° East 526 605 37,000  Level Salt Lake Center
01:57PM 39.7536 -109.9464 78° East 526 605 37,000  Level Salt Lake Center
01:58PM 39.7842 -109.7692 77° East 524 603 37,000  Level Salt Lake Center
01:59PM 39.8167 -109.5619 78° East 523 602 37,000  Level Salt Lake Center
02:00PM 39.8314 -109.4717 78° East 522 601 37,000  Level Denver Center
02:01PM 39.8639 -109.2633 78° East 524 603 37,000  Level Denver Center
02:02PM 39.8781 -109.1767 78° East 524 603 37,000  Level Salt Lake Center
02:03PM 39.9061 -108.9956 79° East 527 606 37,000  Level Salt Lake Center
02:03PM 39.9242 -108.8728 79° East 528 608 37,000  Level Denver Center
02:04PM 39.9533 -108.6911 78° East 528 608 37,000  Level Denver Center
02:05PM 39.9797 -108.5094 79° East 529 609 37,000  Level Denver Center
02:06PM 40.0122 -108.2989 79° East 528 608 37,000  Level Denver Center
02:07PM 40.0397 -108.1178 79° East 529 609 37,000  Level Denver Center
02:08PM 40.0697 -107.9042 80° East 533 613 37,000 -480 Level Denver Center
02:10PM 40.1029 -107.7016 76° East  Level FlightAware Approximate
02:10PM 40.1442 -107.5475 76° East 532 612 35,600  Level Denver Center
02:11PM 40.1856 -107.3392 75° East 529 609 35,000 -300 Descending Denver Center
02:12PM 40.2206 -107.1656 75° East 520 598 35,000  Level Denver Center
02:13PM 40.2614 -106.9553 76° East 528 608 35,000  Level Denver Center
02:14PM 40.2942 -106.7858 76° East 537 618 35,000 -180 Level Denver Center
02:15PM 40.3325 -106.5939 75° East 542 624 34,700 -1,920 Descending Denver Center
02:16PM 40.3469 -106.3675 85° East 547 629 31,100 -2,880 Descending Denver Center
02:18PM 40.3494 -106.1733 89° East 557 641 28,800 -2,460 Descending Denver Center
02:19PM 40.3508 -105.9472 89° East 538 619 26,100 -1,980 Descending Denver Center
02:20PM 40.3617 -105.7683 85° East 481 554 24,800 -1,860 Descending Denver Center
02:21PM 40.3561 -105.6044 92° East 449 517 22,300 -1,800 Descending Denver Center
02:22PM 40.3528 -105.4514 92° East 426 490 21,100 -1,320 Descending Denver Center
02:23PM 40.2981 -105.3467 124° Southeast 354 407 19,700 -1,560 Descending Denver Center
02:24PM 40.2336 -105.2411 129° Southeast 346 398 18,000 -1,380 Descending Denver Center
02:25PM 40.1908 -105.1625 125° Southeast 345 397 16,900 -1,200 Descending Denver Center
02:26PM 40.1253 -105.0411 125° Southeast 331 381 15,600 -1,320 Descending Denver Center
02:27PM 40.0683 -104.9386 126° Southeast 323 372 14,200 -1,260 Descending Denver Center
02:28PM 40.0156 -104.8428 126° Southeast 323 372 13,100 -840 Descending Denver Center
02:29PM 39.9664 -104.7450 123° Southeast 322 371 12,500 -900 Descending Denver Center
02:30PM 39.9250 -104.6439 118° Southeast 315 362 11,200 -720 Descending Denver Center
02:31PM 39.8706 -104.5436 125° Southeast 265 305 11,000 -60 Descending Denver Center
02:32PM 39.8031 -104.5122 160° South 241 277 11,100  Climbing Denver Center
02:33PM 39.7344 -104.5164 183° South 243 280 11,000 -660 Descending Denver Center
02:34PM 39.6647 -104.5197 182° South 248 285 9,800 -1,140 Descending Denver Center
02:35PM 39.5906 -104.5256 183° South 247 284 8,700 -900 Descending Denver Center
02:36PM 39.5436 -104.5664 214° Southwest 236 272 8,000 -300 Descending Denver Center
02:37PM 39.5611 -104.6278 290° West 200 230 8,100  Climbing Denver Center
02:38PM 39.6142 -104.6453 346° North 178 205 8,100 -300 Level Denver Center
02:39PM 39.6625 -104.6439 North 174 200 7,500 -540 Descending Denver Center
02:40PM 39.7089 -104.6431 North 169 194 7,100 -300 Descending Denver Center
02:41PM 39.7578 -104.6425 North 164 189 6,900 -540 Descending Denver Center
02:42PM 39.7972 -104.6419 North 142 163 6,100 -780 Descending Denver Center
02:43PM 39.8375 -104.6422 360° North 144 166 5,400 -720 Descending Denver Center
02:45PM 39.8500 -104.6667 North  Level FlightAware Approximate
02:52PM 39.8617 -104.6732 North  Level Estimated
02:53PM 39.8617 -104.6732 North  Level Estimated
02:54PM 39.8617 -104.6732 North  Level Estimated